createdAt,value
2023-08-20T00:00:32.444Z,1.08
2023-08-20T00:03:17.761Z,1.02
2023-08-20T00:06:05.109Z,1.30
2023-08-20T00:08:50.965Z,1.23
2023-08-20T00:11:36.269Z,1.00
2023-08-20T00:14:41.791Z,1.35
2023-08-20T00:17:28.241Z,1.30
2023-08-20T00:20:18.335Z,1.25
2023-08-20T00:23:03.900Z,1.10
2023-08-20T00:25:49.442Z,1.00
2023-08-20T00:28:35.444Z,1.00
2023-08-20T00:31:20.931Z,1.20
2023-08-20T00:34:08.016Z,1.00
2023-08-20T00:36:53.567Z,1.20
2023-08-20T00:39:39.634Z,1.30
2023-08-20T00:42:26.702Z,1.48
2023-08-20T00:45:12.225Z,1.20
2023-08-20T00:47:58.504Z,1.23
2023-08-20T00:50:46.877Z,1.30
2023-08-20T00:53:31.958Z,1.30
2023-08-20T00:56:17.633Z,1.50
2023-08-20T00:59:03.033Z,1.38
2023-08-20T01:01:48.678Z,1.15
2023-08-20T01:04:35.055Z,1.33
2023-08-20T01:07:31.724Z,1.42
2023-08-20T01:10:56.308Z,1.30
2023-08-20T01:13:41.856Z,1.42
2023-08-20T01:16:26.899Z,1.60
2023-08-20T01:19:20.775Z,1.50
2023-08-20T01:22:46.097Z,1.30
2023-08-20T01:25:56.505Z,1.40
2023-08-20T01:28:43.102Z,1.50
2023-08-20T01:31:30.150Z,1.70
2023-08-20T01:34:15.706Z,1.60
2023-08-20T01:37:01.290Z,1.40
2023-08-20T01:39:46.599Z,1.48
2023-08-20T01:42:31.980Z,1.50
2023-08-20T01:45:19.334Z,1.40
2023-08-20T01:48:05.157Z,1.48
2023-08-20T01:50:50.650Z,1.25
2023-08-20T01:53:36.386Z,1.27
2023-08-20T01:56:21.731Z,1.27
2023-08-20T01:59:07.242Z,1.33
2023-08-20T02:01:52.826Z,1.30
2023-08-20T02:04:38.318Z,1.20
2023-08-20T02:07:23.782Z,1.33
2023-08-20T02:10:10.109Z,1.60
2023-08-20T02:12:56.317Z,1.58
2023-08-20T02:15:41.820Z,1.65
2023-08-20T02:18:27.363Z,1.70
2023-08-20T02:21:13.435Z,1.67
2023-08-20T02:23:59.088Z,1.60
2023-08-20T02:26:44.578Z,1.50
2023-08-20T02:29:30.156Z,1.67
2023-08-20T02:32:15.586Z,1.60
2023-08-20T02:35:01.260Z,1.58
2023-08-20T02:37:47.028Z,1.60
2023-08-20T02:40:32.466Z,1.42
2023-08-20T02:43:17.664Z,1.20
2023-08-20T02:46:03.501Z,1.50
2023-08-20T02:48:49.044Z,1.40
2023-08-20T02:51:34.694Z,1.65
2023-08-20T02:54:20.267Z,1.58
2023-08-20T02:57:05.837Z,1.48
2023-08-20T02:59:51.841Z,1.35
2023-08-20T03:02:37.473Z,1.30
2023-08-20T03:05:23.604Z,1.42
2023-08-20T03:08:09.208Z,1.50
2023-08-20T03:10:54.684Z,1.92
2023-08-20T03:13:40.071Z,1.55
2023-08-20T03:16:25.583Z,1.60
2023-08-20T03:19:11.063Z,1.52
2023-08-20T03:21:56.566Z,1.33
2023-08-20T03:24:42.075Z,1.92
2023-08-20T03:27:27.613Z,1.58
2023-08-20T03:30:13.317Z,1.50
2023-08-20T03:32:59.220Z,1.50
2023-08-20T03:35:44.662Z,1.70
2023-08-20T03:38:30.789Z,1.42
2023-08-20T03:41:16.097Z,1.55
2023-08-20T03:44:01.670Z,1.60
2023-08-20T03:46:47.318Z,1.50
2023-08-20T03:49:32.948Z,1.50
2023-08-20T03:52:18.634Z,1.50
2023-08-20T03:55:04.423Z,1.70
2023-08-20T03:57:52.115Z,1.65
2023-08-20T04:00:38.618Z,1.55
2023-08-20T04:03:23.929Z,1.95
2023-08-20T04:06:09.650Z,1.40
2023-08-20T04:08:56.180Z,1.35
2023-08-20T04:11:41.563Z,1.40
2023-08-20T04:14:29.094Z,1.50
2023-08-20T04:17:14.429Z,1.45
2023-08-20T04:19:59.781Z,1.63
2023-08-20T04:22:46.490Z,1.65
2023-08-20T04:25:32.580Z,1.88
2023-08-20T04:28:18.020Z,1.65
2023-08-20T04:31:03.625Z,1.60
2023-08-20T04:34:02.749Z,1.90
2023-08-20T04:36:58.874Z,1.98
2023-08-20T04:39:44.585Z,1.60
2023-08-20T04:42:29.850Z,1.40
2023-08-20T04:45:18.085Z,1.30
2023-08-20T04:48:04.585Z,1.80
2023-08-20T04:50:49.944Z,1.65
2023-08-20T04:53:35.362Z,1.50
2023-08-20T04:56:20.899Z,1.50
2023-08-20T04:59:06.288Z,1.70
2023-08-20T05:02:10.142Z,1.30
2023-08-20T05:05:05.055Z,1.30
2023-08-20T05:07:50.177Z,1.40
2023-08-20T05:10:37.650Z,1.40
2023-08-20T05:13:24.981Z,1.38
2023-08-20T05:16:10.737Z,1.20
2023-08-20T05:18:56.288Z,1.10
2023-08-20T05:21:42.163Z,1.20
2023-08-20T05:24:28.328Z,1.13
2023-08-20T05:27:20.406Z,1.20
2023-08-20T05:30:09.643Z,1.33
2023-08-20T05:32:55.108Z,1.52
2023-08-20T05:35:41.658Z,1.13
2023-08-20T05:38:27.555Z,1.02
2023-08-20T05:41:12.886Z,1.00
2023-08-20T05:43:58.596Z,1.02
2023-08-20T05:46:45.265Z,0.98
2023-08-20T05:49:32.242Z,1.05
2023-08-20T05:52:18.351Z,1.10
2023-08-20T05:55:04.836Z,1.10
2023-08-20T05:57:49.987Z,0.90
2023-08-20T06:00:35.496Z,1.00
2023-08-20T06:03:21.398Z,1.02
2023-08-20T06:06:08.961Z,1.27
2023-08-20T06:09:07.816Z,1.00
2023-08-20T06:11:54.510Z,0.95
2023-08-20T06:14:39.955Z,1.10
2023-08-20T06:17:25.349Z,1.00
2023-08-20T06:20:12.570Z,0.90
2023-08-20T06:22:57.952Z,1.00
2023-08-20T06:25:43.502Z,1.00
2023-08-20T06:28:29.369Z,0.77
2023-08-20T06:31:21.902Z,0.98
2023-08-20T06:34:07.243Z,1.00
2023-08-20T06:36:53.844Z,1.20
2023-08-20T06:39:39.289Z,0.80
2023-08-20T06:42:24.891Z,0.77
2023-08-20T06:45:10.656Z,0.90
2023-08-20T06:47:56.057Z,1.30
2023-08-20T06:50:43.012Z,1.00
2023-08-20T06:53:28.304Z,0.93
2023-08-20T06:56:13.875Z,0.93
2023-08-20T06:58:59.454Z,0.88
2023-08-20T07:01:45.065Z,0.95
2023-08-20T07:04:30.496Z,1.10
2023-08-20T07:07:16.961Z,1.00
2023-08-20T07:10:04.507Z,0.80
2023-08-20T07:12:49.946Z,0.82
2023-08-20T07:15:35.511Z,0.75
2023-08-20T07:18:20.960Z,0.85
2023-08-20T07:21:06.328Z,0.70
2023-08-20T07:23:51.807Z,1.20
2023-08-20T07:26:37.226Z,1.00
2023-08-20T07:29:24.655Z,0.80
2023-08-20T07:32:09.881Z,0.90
2023-08-20T07:34:55.206Z,0.93
2023-08-20T07:37:40.762Z,1.00
2023-08-20T07:40:26.228Z,1.00
2023-08-20T07:43:11.855Z,1.05
2023-08-20T07:45:57.526Z,1.00
2023-08-20T07:48:44.254Z,1.13
2023-08-20T07:51:30.449Z,0.85
2023-08-20T07:54:15.892Z,1.10
2023-08-20T07:57:01.428Z,1.20
2023-08-20T07:59:46.860Z,1.10
2023-08-20T08:02:32.266Z,0.85
2023-08-20T08:05:17.724Z,0.77
2023-08-20T08:08:03.820Z,1.13
2023-08-20T08:10:49.567Z,1.08
2023-08-20T08:13:34.980Z,1.20
2023-08-20T08:16:20.566Z,1.02
2023-08-20T08:19:06.094Z,0.77
2023-08-20T08:21:51.736Z,0.90
2023-08-20T08:24:37.234Z,0.90
2023-08-20T08:27:22.792Z,0.90
2023-08-20T08:30:08.720Z,1.00
2023-08-20T08:32:53.950Z,0.82
2023-08-20T08:35:39.618Z,1.08
2023-08-20T08:38:26.683Z,0.80
2023-08-20T08:41:14.454Z,0.80
2023-08-20T08:44:00.057Z,1.13
2023-08-20T08:46:47.100Z,1.05
2023-08-20T08:49:36.086Z,0.88
2023-08-20T08:52:23.471Z,0.90
2023-08-20T08:55:09.582Z,0.82
2023-08-20T08:57:54.913Z,1.00
2023-08-20T09:00:40.704Z,1.10
2023-08-20T09:03:25.988Z,0.93
2023-08-20T09:06:11.971Z,1.20
2023-08-20T09:09:07.259Z,0.90
2023-08-20T09:11:52.480Z,1.15
2023-08-20T09:14:37.895Z,0.95
2023-08-20T09:17:26.372Z,1.08
2023-08-20T09:20:12.330Z,0.98
2023-08-20T09:22:57.581Z,1.00
2023-08-20T09:25:44.337Z,0.85
2023-08-20T09:28:29.888Z,0.75
2023-08-20T09:31:16.374Z,0.95
2023-08-20T09:34:01.741Z,1.08
2023-08-20T09:36:48.097Z,0.80
2023-08-20T09:39:33.591Z,1.02
2023-08-20T09:42:19.390Z,1.02
2023-08-20T09:45:06.375Z,0.70
2023-08-20T09:47:57.150Z,1.02
2023-08-20T09:50:44.324Z,0.85
2023-08-20T09:53:36.658Z,0.93
2023-08-20T09:56:37.506Z,0.90
2023-08-20T09:59:23.672Z,1.05
2023-08-20T10:02:14.817Z,0.93
2023-08-20T10:05:03.189Z,1.13
2023-08-20T10:07:48.673Z,0.98
2023-08-20T10:10:34.576Z,1.00
2023-08-20T10:13:20.349Z,1.13
2023-08-20T10:16:06.108Z,0.88
2023-08-20T10:18:52.065Z,0.85
2023-08-20T10:21:43.514Z,0.70
2023-08-20T10:24:29.095Z,0.95
2023-08-20T10:27:14.344Z,0.80
2023-08-20T10:30:01.192Z,0.73
2023-08-20T10:32:51.966Z,0.88
2023-08-20T10:35:40.132Z,1.10
2023-08-20T10:38:26.273Z,0.80
2023-08-20T10:41:11.558Z,0.98
2023-08-20T10:44:00.924Z,0.90
2023-08-20T10:46:52.886Z,0.93
2023-08-20T10:49:39.030Z,1.15
2023-08-20T10:52:24.963Z,0.60
2023-08-20T10:55:10.672Z,0.70
2023-08-20T10:58:00.775Z,0.90
2023-08-20T11:01:15.147Z,0.90
2023-08-20T11:04:05.774Z,0.80
2023-08-20T11:06:55.467Z,0.73
2023-08-20T11:09:41.766Z,1.30
2023-08-20T11:12:29.922Z,1.00
2023-08-20T11:15:15.538Z,1.00
2023-08-20T11:18:02.018Z,0.90
2023-08-20T11:20:47.693Z,1.10
2023-08-20T11:23:33.649Z,0.90
2023-08-20T11:26:19.345Z,0.60
2023-08-20T11:29:08.513Z,0.80
2023-08-20T11:31:54.015Z,0.80
2023-08-20T11:34:40.068Z,1.08
2023-08-20T11:37:26.107Z,0.80
2023-08-20T11:40:11.581Z,0.88
2023-08-20T11:42:57.276Z,0.90
2023-08-20T11:45:47.385Z,0.90
2023-08-20T11:48:32.719Z,0.80
2023-08-20T11:51:18.851Z,0.73
2023-08-20T11:54:06.805Z,0.80
2023-08-20T11:56:52.947Z,0.85
2023-08-20T11:59:38.701Z,0.90
2023-08-20T12:02:39.400Z,0.82
2023-08-20T12:05:29.691Z,1.20
2023-08-20T12:08:18.655Z,1.10
2023-08-20T12:11:04.275Z,1.35
2023-08-20T12:13:49.748Z,0.80
2023-08-20T12:16:35.456Z,1.00
2023-08-20T12:19:21.102Z,0.95
2023-08-20T12:22:06.456Z,0.60
2023-08-20T12:24:53.018Z,0.60
2023-08-20T12:27:38.398Z,0.88
2023-08-20T12:30:23.929Z,0.80
2023-08-20T12:33:09.592Z,0.55
2023-08-20T12:35:55.957Z,0.80
2023-08-20T12:38:42.871Z,0.80
2023-08-20T12:41:28.219Z,0.60
2023-08-20T12:44:13.737Z,0.80
2023-08-20T12:46:59.208Z,0.52
2023-08-20T12:49:44.628Z,0.50
2023-08-20T12:52:30.064Z,0.52
2023-08-20T12:55:16.052Z,0.60
2023-08-20T12:58:01.313Z,0.60
2023-08-20T13:00:46.686Z,0.70
2023-08-20T13:03:33.081Z,0.50
2023-08-20T13:06:19.067Z,0.45
2023-08-20T13:09:05.152Z,0.50
2023-08-20T13:11:52.858Z,0.60
2023-08-20T13:14:38.643Z,0.70
2023-08-20T13:17:24.694Z,0.65
2023-08-20T13:20:10.914Z,0.65
2023-08-20T13:22:56.516Z,0.60
2023-08-20T13:25:41.664Z,0.57
2023-08-20T13:28:27.942Z,0.55
2023-08-20T13:31:13.548Z,0.80
2023-08-20T13:33:58.667Z,0.65
2023-08-20T13:36:44.248Z,0.70
2023-08-20T13:39:29.734Z,0.57
2023-08-20T13:42:15.207Z,0.60
2023-08-20T13:45:00.870Z,0.80
2023-08-20T13:47:48.276Z,0.75
2023-08-20T13:50:33.618Z,0.80
2023-08-20T13:53:19.144Z,0.98
2023-08-20T13:56:04.698Z,0.63
2023-08-20T13:58:50.222Z,0.90
2023-08-20T14:01:35.956Z,0.90
2023-08-20T14:04:21.307Z,0.90
2023-08-20T14:07:06.599Z,0.90
2023-08-20T14:09:52.110Z,0.80
2023-08-20T14:12:40.781Z,1.13
2023-08-20T14:15:26.797Z,1.00
2023-08-20T14:18:12.293Z,0.77
2023-08-20T14:20:57.945Z,0.90
2023-08-20T14:23:43.630Z,0.90
2023-08-20T14:26:29.255Z,0.90
2023-08-20T14:29:14.859Z,1.10
2023-08-20T14:32:00.285Z,0.90
2023-08-20T14:34:45.868Z,0.60
2023-08-20T14:37:31.516Z,0.88
2023-08-20T14:40:17.265Z,0.80
2023-08-20T14:43:03.160Z,0.70
2023-08-20T14:45:48.723Z,0.80
2023-08-20T14:48:36.200Z,0.70
2023-08-20T14:51:22.162Z,0.70
2023-08-20T14:54:07.898Z,1.20
2023-08-20T14:56:53.685Z,0.90
2023-08-20T14:59:39.251Z,0.93
2023-08-20T15:02:24.984Z,0.90
2023-08-20T15:05:11.711Z,0.90
2023-08-20T15:07:57.329Z,0.80
2023-08-20T15:10:42.587Z,1.15
2023-08-20T15:13:28.772Z,1.00
2023-08-20T15:16:14.474Z,0.68
2023-08-20T15:18:59.927Z,1.08
2023-08-20T15:21:45.860Z,0.70
2023-08-20T15:24:32.030Z,0.75
2023-08-20T15:27:18.091Z,0.93
2023-08-20T15:30:04.518Z,0.80
2023-08-20T15:32:50.717Z,0.75
2023-08-20T15:35:36.209Z,0.70
2023-08-20T15:38:21.814Z,0.60
2023-08-20T15:41:07.214Z,0.90
2023-08-20T15:43:52.714Z,0.93
2023-08-20T15:46:38.933Z,0.80
2023-08-20T15:49:24.169Z,0.50
2023-08-20T15:52:09.519Z,0.70
2023-08-20T15:54:54.987Z,0.80
2023-08-20T15:57:41.650Z,1.10
2023-08-20T16:00:27.388Z,0.88
2023-08-20T16:03:14.537Z,0.70
2023-08-20T16:06:02.611Z,0.80
2023-08-20T16:08:48.373Z,0.80
2023-08-20T16:11:33.617Z,0.70
2023-08-20T16:14:19.196Z,0.73
2023-08-20T16:17:05.057Z,1.00
2023-08-20T16:19:51.209Z,0.75
2023-08-20T16:22:36.926Z,1.25
2023-08-20T16:25:22.385Z,0.80
2023-08-20T16:28:11.733Z,0.90
2023-08-20T16:30:59.133Z,0.80
2023-08-20T16:33:44.478Z,0.90
2023-08-20T16:36:29.977Z,1.30
2023-08-20T16:39:15.561Z,1.00
2023-08-20T16:42:00.872Z,0.80
2023-08-20T16:44:48.281Z,0.70
2023-08-20T16:47:34.901Z,0.90
2023-08-20T16:50:20.512Z,0.85
2023-08-20T16:53:05.869Z,1.00
2023-08-20T16:55:53.124Z,1.00
2023-08-20T16:58:38.312Z,1.00
2023-08-20T17:01:24.015Z,0.77
2023-08-20T17:04:09.529Z,0.80
2023-08-20T17:06:54.957Z,0.82
2023-08-20T17:09:40.723Z,0.80
2023-08-20T17:12:27.127Z,0.70
2023-08-20T17:15:13.014Z,0.90
2023-08-20T17:18:00.026Z,0.80
2023-08-20T17:20:45.338Z,0.88
2023-08-20T17:23:31.701Z,0.98
2023-08-20T17:26:16.993Z,1.00
2023-08-20T17:29:03.476Z,1.00
2023-08-20T17:31:49.110Z,1.10
2023-08-20T17:34:35.302Z,0.98
2023-08-20T17:37:22.966Z,0.57
2023-08-20T17:40:10.420Z,1.08
2023-08-20T17:42:55.614Z,1.30
2023-08-20T17:45:41.315Z,1.38
2023-08-20T17:48:28.705Z,0.98
2023-08-20T17:51:14.870Z,1.50
2023-08-20T17:54:00.458Z,0.90
2023-08-20T17:56:45.894Z,0.82
2023-08-20T17:59:31.641Z,1.02
2023-08-20T18:02:17.175Z,1.13
2023-08-20T18:05:06.203Z,1.30
2023-08-20T18:07:55.613Z,1.20
2023-08-20T18:10:40.835Z,1.08
2023-08-20T18:13:26.154Z,1.08
2023-08-20T18:16:12.297Z,1.10
2023-08-20T18:18:57.743Z,1.00
2023-08-20T18:21:43.432Z,1.10
2023-08-20T18:24:29.178Z,0.90
2023-08-20T18:27:14.666Z,1.00
2023-08-20T18:30:00.240Z,1.00
2023-08-20T18:32:45.961Z,1.00
2023-08-20T18:35:31.517Z,1.00
2023-08-20T18:38:38.949Z,0.75
2023-08-20T18:41:24.338Z,1.00
2023-08-20T18:44:09.934Z,1.05
2023-08-20T18:46:55.269Z,0.80
2023-08-20T18:49:41.061Z,0.90
2023-08-20T18:52:26.498Z,0.82
2023-08-20T18:55:12.037Z,0.93
2023-08-20T18:57:57.499Z,0.82
2023-08-20T19:00:43.251Z,0.93
2023-08-20T19:03:28.979Z,0.80
2023-08-20T19:06:14.826Z,0.88
2023-08-20T19:09:00.579Z,0.70
2023-08-20T19:11:45.727Z,0.80
2023-08-20T19:14:31.629Z,0.88
2023-08-20T19:17:16.966Z,0.93
2023-08-20T19:20:02.584Z,1.00
2023-08-20T19:22:48.192Z,0.90
2023-08-20T19:25:33.723Z,1.30
2023-08-20T19:28:19.373Z,1.00
2023-08-20T19:31:05.035Z,1.15
2023-08-20T19:33:50.709Z,0.93
2023-08-20T19:36:36.278Z,1.10
2023-08-20T19:39:21.881Z,1.30
2023-08-20T19:42:09.782Z,1.50
2023-08-20T19:44:55.147Z,1.40
2023-08-20T19:47:42.259Z,1.00
2023-08-20T19:50:28.568Z,1.23
2023-08-20T19:53:13.911Z,0.85
2023-08-20T19:55:59.401Z,0.90
2023-08-20T19:58:45.214Z,1.10
2023-08-20T20:01:30.590Z,1.10
2023-08-20T20:04:16.221Z,1.13
2023-08-20T20:07:16.826Z,0.90
2023-08-20T20:10:07.608Z,1.00
2023-08-20T20:12:53.101Z,0.93
2023-08-20T20:15:38.620Z,0.98
2023-08-20T20:18:24.285Z,0.85
2023-08-20T20:21:10.376Z,0.80
2023-08-20T20:23:56.043Z,1.00
2023-08-20T20:26:41.478Z,0.90
2023-08-20T20:29:26.932Z,1.00
2023-08-20T20:32:12.406Z,0.90
2023-08-20T20:34:58.285Z,0.80
2023-08-20T20:37:43.662Z,1.08
2023-08-20T20:40:29.234Z,0.85
2023-08-20T20:43:14.948Z,1.40
2023-08-20T20:46:00.541Z,1.23
2023-08-20T20:48:46.025Z,0.90
2023-08-20T20:51:31.620Z,1.27
2023-08-20T20:54:17.121Z,1.08
2023-08-20T20:57:02.807Z,1.40
2023-08-20T20:59:48.394Z,1.55
2023-08-20T21:02:34.173Z,1.42
2023-08-20T21:05:19.419Z,1.45
2023-08-20T21:08:05.099Z,1.40
2023-08-20T21:10:51.102Z,1.63
2023-08-20T21:13:36.586Z,1.73
2023-08-20T21:16:22.675Z,1.67
2023-08-20T21:19:08.117Z,1.90
2023-08-20T21:21:57.431Z,1.98
2023-08-20T21:24:42.875Z,2.10
2023-08-20T21:27:28.310Z,1.80
2023-08-20T21:30:16.073Z,1.83
2023-08-20T21:33:01.758Z,2.30
2023-08-20T21:35:47.122Z,2.40
2023-08-20T21:38:32.718Z,2.67
2023-08-20T21:41:18.014Z,2.60
2023-08-20T21:44:03.513Z,2.22
2023-08-20T21:46:49.058Z,2.40
2023-08-20T21:49:34.564Z,2.08
2023-08-20T21:52:21.368Z,1.80
2023-08-20T21:55:07.190Z,1.73
2023-08-20T21:57:52.331Z,1.77
2023-08-20T22:00:37.969Z,1.58
2023-08-20T22:03:23.622Z,1.63
2023-08-20T22:06:09.153Z,1.33
2023-08-20T22:08:54.647Z,1.50
2023-08-20T22:11:40.978Z,1.70
2023-08-20T22:14:26.702Z,1.38
2023-08-20T22:17:12.229Z,1.55
2023-08-20T22:19:58.333Z,1.80
2023-08-20T22:22:44.014Z,1.60
2023-08-20T22:25:29.472Z,1.70
2023-08-20T22:28:15.088Z,1.75
2023-08-20T22:31:02.345Z,1.60
2023-08-20T22:33:47.811Z,1.98
2023-08-20T22:36:33.108Z,1.48
2023-08-20T22:39:18.734Z,1.50
2023-08-20T22:42:04.349Z,1.60
2023-08-20T22:44:50.018Z,1.80
2023-08-20T22:47:35.300Z,1.73
2023-08-20T22:50:20.808Z,1.73
2023-08-20T22:53:06.437Z,1.90
2023-08-20T22:55:52.501Z,1.67
2023-08-20T22:58:38.119Z,1.80
2023-08-20T23:01:23.642Z,2.00
2023-08-20T23:04:09.398Z,1.92
2023-08-20T23:06:54.867Z,2.00
2023-08-20T23:09:40.255Z,1.75
2023-08-20T23:12:26.099Z,1.73
2023-08-20T23:15:11.461Z,1.95
2023-08-20T23:17:57.349Z,1.60
2023-08-20T23:20:42.904Z,1.50
2023-08-20T23:23:29.229Z,1.98
2023-08-20T23:26:14.478Z,1.60
2023-08-20T23:29:01.356Z,1.38
2023-08-20T23:31:47.058Z,1.50
2023-08-20T23:34:33.930Z,1.40
2023-08-20T23:37:19.234Z,1.50
2023-08-20T23:40:05.156Z,1.40
2023-08-20T23:42:51.252Z,1.30
2023-08-20T23:45:36.743Z,1.20
2023-08-20T23:48:22.423Z,1.27
2023-08-20T23:51:07.859Z,1.40
2023-08-20T23:53:53.336Z,1.23
2023-08-20T23:56:38.778Z,1.08
2023-08-20T23:59:24.348Z,1.10
